Time;durP1;ratioP1;P1;durP2;ratioP2;P2;SDS_P1;SDS_P2;PMS_P1;PMS_P2;Temp;Humidity;BMP_temperature;BMP_pressure;BME280_temperature;BME280_humidity;BME280_pressure;Samples;Min_cycle;Max_cycle;Signal;HPM_P1;HPM_P2
2022/12/16 00:01:06;;;;;;;51.87;30.83;;;;;;;;;;5030634;28;20205;-70
2022/12/16 00:03:32;;;;;;;52.40;28.87;;;;;;;;;;5029294;28;20197;-70
2022/12/16 00:05:57;;;;;;;49.13;29.03;;;;;;;;;;5028543;28;20187;-71
2022/12/16 00:08:22;;;;;;;45.43;28.17;;;;;;;;;;5028555;28;20220;-70
2022/12/16 00:10:53;;;;;;;44.77;26.97;;;;;;;;;;5026255;28;20256;-70
2022/12/16 00:13:19;;;;;;;43.23;26.20;;;;;;;;;;5028705;28;20529;-71
2022/12/16 00:15:45;;;;;;;46.43;27.17;;;;;;;;;;5031715;28;20333;-71
2022/12/16 00:18:11;;;;;;;41.37;24.73;;;;;;;;;;5032619;28;20256;-71
2022/12/16 00:20:36;;;;;;;39.00;23.50;;;;;;;;;;5031331;28;20639;-70
2022/12/16 00:23:01;;;;;;;38.10;23.40;;;;;;;;;;5031386;28;20193;-71
2022/12/16 00:25:26;;;;;;;35.13;21.83;;;;;;;;;;5030979;28;20522;-71
2022/12/16 00:27:51;;;;;;;35.63;20.87;;;;;;;;;;5032247;28;20193;-70
2022/12/16 00:30:17;;;;;;;37.03;20.27;;;;;;;;;;5025195;28;20211;-71
2022/12/16 00:32:42;;;;;;;31.27;18.87;;;;;;;;;;5030359;28;20212;-70
2022/12/16 00:35:07;;;;;;;30.23;17.60;;;;;;;;;;5029612;28;20703;-70
2022/12/16 00:37:32;;;;;;;28.77;16.90;;;;;;;;;;5031296;28;20232;-70
2022/12/16 00:39:57;;;;;;;29.87;17.10;;;;;;;;;;5033921;28;20232;-70
2022/12/16 00:42:23;;;;;;;28.17;16.73;;;;;;;;;;5021339;28;20187;-70
2022/12/16 00:44:48;;;;;;;25.17;16.50;;;;;;;;;;5028944;28;20178;-69
2022/12/16 00:47:13;;;;;;;28.30;16.53;;;;;;;;;;5031419;28;20167;-69
2022/12/16 00:49:38;;;;;;;25.77;16.53;;;;;;;;;;5029130;28;20303;-70
2022/12/16 00:52:03;;;;;;;27.53;16.73;;;;;;;;;;5024586;28;20293;-71
2022/12/16 00:54:29;;;;;;;31.50;17.47;;;;;;;;;;5027260;28;20667;-72
2022/12/16 00:56:55;;;;;;;27.20;17.10;;;;;;;;;;5029387;28;20178;-69
2022/12/16 00:59:20;;;;;;;25.17;15.77;;;;;;;;;;5029567;28;20235;-69
2022/12/16 01:01:45;;;;;;;23.77;14.17;;;;;;;;;;5029783;28;20259;-71
2022/12/16 01:04:10;;;;;;;22.80;14.20;;;;;;;;;;5031514;28;20174;-69
2022/12/16 01:06:35;;;;;;;25.20;15.17;;;;;;;;;;5031755;28;20201;-71
2022/12/16 01:09:01;;;;;;;27.90;14.63;;;;;;;;;;5043827;28;20663;-69
2022/12/16 01:11:26;;;;;;;32.90;14.37;;;;;;;;;;5029312;28;20202;-72
2022/12/16 01:13:51;;;;;;;23.53;14.57;;;;;;;;;;5030690;28;20176;-69
2022/12/16 01:16:16;;;;;;;20.73;14.37;;;;;;;;;;5030840;28;20201;-69
2022/12/16 01:18:42;;;;;;;22.43;14.17;;;;;;;;;;5031042;28;20313;-71
2022/12/16 01:21:09;;;;;;;22.13;14.40;;;;;;;;;;5030389;28;20629;-71
2022/12/16 01:23:35;;;;;;;23.53;13.60;;;;;;;;;;5031622;28;20194;-72
2022/12/16 01:26:00;;;;;;;21.43;13.43;;;;;;;;;;5021650;28;20186;-71
2022/12/16 01:28:26;;;;;;;20.30;11.27;;;;;;;;;;5028275;28;20179;-71
2022/12/16 01:30:56;;;;;;;19.30;11.33;;;;;;;;;;5029059;28;20206;-70
2022/12/16 01:33:21;;;;;;;20.97;10.83;;;;;;;;;;5040302;28;20485;-70
2022/12/16 01:35:46;;;;;;;18.93;11.17;;;;;;;;;;5031073;28;20198;-69
2022/12/16 01:38:12;;;;;;;16.53;9.33;;;;;;;;;;5031637;28;20177;-69
2022/12/16 01:40:37;;;;;;;16.33;9.90;;;;;;;;;;5031119;28;20573;-69
2022/12/16 01:43:08;;;;;;;15.07;9.73;;;;;;;;;;5028849;28;20264;-69
2022/12/16 01:45:34;;;;;;;16.23;9.87;;;;;;;;;;5031417;28;20186;-70
2022/12/16 01:48:17;;;;;;;11.03;7.97;;;;;;;;;;5033407;28;20182;-70
2022/12/16 01:50:42;;;;;;;18.67;9.23;;;;;;;;;;5031763;28;20198;-70
2022/12/16 01:53:08;;;;;;;15.73;8.50;;;;;;;;;;5031368;28;20189;-70
2022/12/16 01:55:36;;;;;;;12.57;8.47;;;;;;;;;;5028707;28;20909;-70
2022/12/16 01:58:08;;;;;;;13.60;7.63;;;;;;;;;;5030729;28;20599;-69
2022/12/16 02:00:33;;;;;;;12.57;7.73;;;;;;;;;;5043533;28;20202;-70
2022/12/16 02:02:59;;;;;;;11.53;6.77;;;;;;;;;;5041600;28;20277;-70
2022/12/16 02:05:25;;;;;;;14.70;6.17;;;;;;;;;;5030748;28;20192;-70
2022/12/16 02:08:11;;;;;;;13.37;6.30;;;;;;;;;;5030831;28;20261;-70
2022/12/16 02:10:42;;;;;;;8.83;5.20;;;;;;;;;;5027552;28;20725;-70
2022/12/16 02:13:26;;;;;;;9.33;5.53;;;;;;;;;;5030191;28;20188;-70
2022/12/16 02:15:58;;;;;;;8.67;4.90;;;;;;;;;;5030255;28;20555;-69
2022/12/16 02:18:33;;;;;;;7.57;5.50;;;;;;;;;;5029988;28;20186;-70
2022/12/16 02:21:04;;;;;;;7.33;4.50;;;;;;;;;;5025203;28;20691;-69
2022/12/16 02:23:45;;;;;;;7.27;4.90;;;;;;;;;;5030076;28;20196;-70
2022/12/16 02:26:29;;;;;;;5.87;4.20;;;;;;;;;;5029161;28;20189;-69
2022/12/16 02:29:13;;;;;;;9.73;4.20;;;;;;;;;;5027933;28;20222;-70
2022/12/16 02:31:57;;;;;;;7.97;4.90;;;;;;;;;;5029882;28;20217;-69
2022/12/16 02:34:34;;;;;;;7.17;3.73;;;;;;;;;;5030209;28;20186;-70
2022/12/16 02:37:09;;;;;;;9.13;4.07;;;;;;;;;;5031796;28;20193;-70
2022/12/16 02:39:39;;;;;;;8.70;4.37;;;;;;;;;;5033674;28;20313;-70
2022/12/16 02:42:17;;;;;;;8.20;3.67;;;;;;;;;;5031327;28;20619;-70
2022/12/16 02:44:56;;;;;;;7.53;4.10;;;;;;;;;;5030755;28;20244;-70
2022/12/16 02:47:22;;;;;;;6.30;3.43;;;;;;;;;;5033656;28;20236;-70
2022/12/16 02:49:49;;;;;;;7.03;3.57;;;;;;;;;;5034020;28;20209;-70
2022/12/16 02:52:16;;;;;;;7.67;4.47;;;;;;;;;;5031200;28;20186;-69
2022/12/16 02:54:42;;;;;;;11.10;4.70;;;;;;;;;;5031605;28;20212;-70
2022/12/16 02:57:26;;;;;;;8.67;4.03;;;;;;;;;;5033086;28;20217;-70
2022/12/16 03:00:05;;;;;;;6.40;3.00;;;;;;;;;;5041040;28;20632;-69
2022/12/16 03:02:33;;;;;;;7.23;3.07;;;;;;;;;;5031831;28;20188;-70
2022/12/16 03:05:11;;;;;;;11.00;3.60;;;;;;;;;;5034080;28;20182;-70
2022/12/16 03:07:38;;;;;;;4.63;3.13;;;;;;;;;;5033751;28;20647;-70
2022/12/16 03:10:05;;;;;;;5.77;3.40;;;;;;;;;;5033167;28;20206;-70
2022/12/16 03:12:32;;;;;;;6.80;3.83;;;;;;;;;;5032493;28;20249;-70
2022/12/16 03:14:57;;;;;;;8.10;3.90;;;;;;;;;;5033915;28;20297;-70
2022/12/16 03:17:23;;;;;;;9.17;3.70;;;;;;;;;;5033730;28;20202;-69
2022/12/16 03:19:53;;;;;;;6.53;3.77;;;;;;;;;;5032149;28;20687;-70
2022/12/16 03:22:27;;;;;;;7.53;3.67;;;;;;;;;;5030894;28;20213;-69
2022/12/16 03:24:52;;;;;;;8.23;3.90;;;;;;;;;;5032538;28;20607;-70
2022/12/16 03:27:24;;;;;;;6.53;3.67;;;;;;;;;;5033572;28;20210;-70
2022/12/16 03:29:56;;;;;;;8.87;3.80;;;;;;;;;;5040094;22;20296;-78
2022/12/16 03:32:26;;;;;;;8.67;4.27;;;;;;;;;;5013417;28;20183;-78
2022/12/16 03:35:07;;;;;;;8.27;3.97;;;;;;;;;;5007800;28;20268;-78
2022/12/16 03:37:33;;;;;;;10.07;3.83;;;;;;;;;;5013378;28;20297;-78
2022/12/16 03:40:00;;;;;;;7.33;3.87;;;;;;;;;;4995839;28;20224;-78
2022/12/16 03:42:25;;;;;;;7.90;3.93;;;;;;;;;;4996905;28;20685;-78
2022/12/16 03:44:51;;;;;;;9.20;4.40;;;;;;;;;;4989943;28;20200;-78
2022/12/16 03:47:16;;;;;;;10.13;4.77;;;;;;;;;;5009763;28;20188;-78
2022/12/16 03:49:41;;;;;;;12.30;4.67;;;;;;;;;;4997451;28;20199;-78
2022/12/16 03:52:06;;;;;;;11.20;4.13;;;;;;;;;;4997639;28;20265;-78
2022/12/16 03:54:31;;;;;;;10.73;4.37;;;;;;;;;;4994969;28;20231;-79
2022/12/16 03:56:57;;;;;;;10.63;5.20;;;;;;;;;;4994509;28;20187;-78
2022/12/16 03:59:22;;;;;;;11.03;4.80;;;;;;;;;;4994709;28;20630;-78
2022/12/16 04:01:48;;;;;;;11.27;4.83;;;;;;;;;;4994782;28;20180;-78
2022/12/16 04:04:14;;;;;;;10.57;4.77;;;;;;;;;;4994764;28;20431;-78
2022/12/16 04:06:39;;;;;;;9.50;4.57;;;;;;;;;;4995725;28;20187;-78
2022/12/16 04:09:05;;;;;;;9.23;4.37;;;;;;;;;;4993592;28;20275;-78
2022/12/16 04:25:17;;;;;;;9.30;4.83;;;;;;;;;;4995016;28;20680;-78
2022/12/16 04:27:45;;;;;;;8.57;4.30;;;;;;;;;;4992700;28;20273;-78
2022/12/16 04:30:20;;;;;;;9.53;4.50;;;;;;;;;;4991229;28;20333;-78
